Time;durP1;ratioP1;P1;durP2;ratioP2;P2;SDS_P1;SDS_P2;PMS_P1;PMS_P2;Temp;Humidity;BMP_temperature;BMP_pressure;BME280_temperature;BME280_humidity;BME280_pressure;Samples;Min_cycle;Max_cycle;Signal;HPM_P1;HPM_P2
2022/03/19 00:00:36;;;;;;;52.73;35.93;;;4.90;39.60;;;;;;5033805;28;20178;-71
2022/03/19 00:03:02;;;;;;;52.03;35.57;;;4.80;39.70;;;;;;5033308;28;20208;-73
2022/03/19 00:05:28;;;;;;;56.65;42.10;;;4.80;39.90;;;;;;5033335;28;20195;-71
2022/03/19 00:07:54;;;;;;;65.03;39.73;;;4.70;40.00;;;;;;5032978;28;20177;-73
2022/03/19 00:10:21;;;;;;;55.25;39.38;;;4.70;40.30;;;;;;5033919;28;20169;-72
2022/03/19 00:12:49;;;;;;;56.38;38.53;;;4.70;40.20;;;;;;5033674;28;20180;-71
2022/03/19 00:15:18;;;;;;;64.43;41.00;;;4.60;40.50;;;;;;5033281;28;20210;-71
2022/03/19 00:17:43;;;;;;;45.85;36.30;;;4.60;40.20;;;;;;5033073;28;20177;-71
2022/03/19 00:20:10;;;;;;;57.63;40.07;;;4.50;40.80;;;;;;5033326;28;20179;-71
2022/03/19 00:22:37;;;;;;;61.70;41.75;;;4.60;40.90;;;;;;5033070;28;20248;-72
2022/03/19 00:25:03;;;;;;;63.50;40.92;;;4.60;41.30;;;;;;5033376;28;20192;-71
2022/03/19 00:27:28;;;;;;;48.42;37.92;;;4.70;40.30;;;;;;5033566;28;20691;-71
2022/03/19 00:29:54;;;;;;;61.87;37.60;;;4.60;39.80;;;;;;5031895;28;20178;-71
2022/03/19 00:32:19;;;;;;;69.03;39.63;;;4.50;40.10;;;;;;5032940;28;20560;-71
2022/03/19 00:34:45;;;;;;;62.57;38.80;;;4.60;40.00;;;;;;5032942;28;20341;-71
2022/03/19 00:37:11;;;;;;;59.53;38.17;;;4.60;39.40;;;;;;5032503;28;20188;-71
2022/03/19 00:39:36;;;;;;;62.57;40.63;;;4.50;40.40;;;;;;5032896;28;20192;-72
2022/03/19 00:42:02;;;;;;;57.57;38.80;;;4.40;41.20;;;;;;5032804;28;20842;-70
2022/03/19 00:44:28;;;;;;;57.33;38.20;;;4.60;40.30;;;;;;5033077;28;20203;-70
2022/03/19 00:46:54;;;;;;;57.50;43.43;;;4.60;40.10;;;;;;5031376;28;20990;-71
2022/03/19 00:49:19;;;;;;;52.30;41.83;;;4.40;41.40;;;;;;5032850;28;20192;-71
2022/03/19 00:51:45;;;;;;;61.73;39.77;;;4.40;41.60;;;;;;5032404;28;20192;-72
2022/03/19 00:54:12;;;;;;;51.60;38.60;;;4.40;41.50;;;;;;5032705;28;20580;-71
2022/03/19 00:56:38;;;;;;;57.20;40.53;;;4.50;40.60;;;;;;5032606;28;20175;-71
2022/03/19 00:59:04;;;;;;;62.77;40.67;;;4.30;41.40;;;;;;5032465;28;20172;-71
2022/03/19 01:01:29;;;;;;;59.73;40.13;;;4.20;42.10;;;;;;5032617;28;20855;-71
2022/03/19 01:03:55;;;;;;;67.57;43.40;;;4.10;43.40;;;;;;5032332;28;20254;-70
2022/03/19 01:06:21;;;;;;;59.37;42.03;;;4.10;43.80;;;;;;5032169;28;20168;-72
2022/03/19 01:08:46;;;;;;;62.50;40.60;;;4.20;42.50;;;;;;5032434;28;20255;-70
2022/03/19 01:11:12;;;;;;;63.53;41.70;;;4.20;42.90;;;;;;5032361;28;20181;-70
2022/03/19 01:13:38;;;;;;;59.92;38.67;;;4.10;42.80;;;;;;5032233;28;20203;-70
2022/03/19 01:16:04;;;;;;;62.43;41.03;;;4.20;42.20;;;;;;5032178;28;20191;-70
2022/03/19 01:18:30;;;;;;;53.97;41.90;;;4.10;42.90;;;;;;5030575;28;20215;-71
2022/03/19 01:20:56;;;;;;;56.70;38.15;;;4.00;43.40;;;;;;5032001;28;20450;-70
2022/03/19 01:23:21;;;;;;;52.93;40.70;;;4.10;42.60;;;;;;5031849;28;20203;-70
2022/03/19 01:25:47;;;;;;;69.20;46.23;;;4.00;43.30;;;;;;5031992;28;20416;-69
2022/03/19 01:28:12;;;;;;;71.20;45.57;;;4.00;44.10;;;;;;5031919;28;20170;-70
2022/03/19 01:30:38;;;;;;;59.57;41.63;;;3.90;44.00;;;;;;5032033;28;20314;-70
2022/03/19 01:33:04;;;;;;;68.13;44.60;;;3.90;44.40;;;;;;5032012;28;20546;-72
2022/03/19 01:35:29;;;;;;;49.07;37.77;;;3.90;44.20;;;;;;5032093;28;20639;-70
2022/03/19 01:37:56;;;;;;;66.27;44.87;;;3.90;44.60;;;;;;5031787;28;20175;-70
2022/03/19 01:40:22;;;;;;;65.40;45.50;;;3.80;44.50;;;;;;5032088;28;20175;-70
2022/03/19 01:42:50;;;;;;;70.13;46.40;;;3.80;45.10;;;;;;5031878;28;20206;-70
2022/03/19 01:45:22;;;;;;;68.95;46.50;;;3.80;44.50;;;;;;5031741;28;20911;-70
2022/03/19 01:47:48;;;;;;;66.25;45.05;;;3.80;44.10;;;;;;5031468;28;20320;-71
2022/03/19 01:50:16;;;;;;;73.72;45.45;;;3.70;44.60;;;;;;5031778;28;20183;-70
2022/03/19 01:52:42;;;;;;;56.47;42.65;;;3.70;44.60;;;;;;5031718;28;20171;-70
2022/03/19 01:55:09;;;;;;;75.15;47.88;;;3.60;44.70;;;;;;5031616;28;20207;-70
2022/03/19 01:57:38;;;;;;;74.93;45.97;;;3.60;45.40;;;;;;5031431;28;20181;-70
2022/03/19 02:00:06;;;;;;;70.95;43.90;;;3.50;45.60;;;;;;5031707;28;20188;-70
2022/03/19 02:02:31;;;;;;;66.38;41.40;;;3.50;45.40;;;;;;5032521;28;20246;-70
2022/03/19 02:04:59;;;;;;;61.87;43.23;;;3.60;45.10;;;;;;5035594;28;20687;-71
2022/03/19 02:07:25;;;;;;;61.55;45.50;;;3.60;44.10;;;;;;5035710;28;20197;-71
2022/03/19 02:09:51;;;;;;;73.73;47.07;;;3.60;44.20;;;;;;5035581;28;20222;-70
2022/03/19 02:12:16;;;;;;;59.60;39.33;;;3.60;44.90;;;;;;5035547;28;20322;-70
2022/03/19 02:14:44;;;;;;;60.00;40.40;;;3.60;44.20;;;;;;5035476;28;20701;-70
2022/03/19 02:17:10;;;;;;;66.07;43.38;;;3.70;42.30;;;;;;5035169;28;20186;-71
2022/03/19 02:19:49;;;;;;;66.73;43.60;;;3.70;40.50;;;;;;5035327;28;20170;-70
2022/03/19 02:22:19;;;;;;;65.78;42.38;;;3.80;41.20;;;;;;5034060;28;21002;-70
2022/03/19 02:27:31;;;;;;;61.90;40.55;;;3.70;42.20;;;;;;5035594;28;20175;-70
2022/03/19 02:29:57;;;;;;;48.17;39.03;;;3.60;42.90;;;;;;5035190;28;20171;-70
2022/03/19 02:32:23;;;;;;;63.97;42.60;;;3.50;43.90;;;;;;5035146;28;20909;-70
2022/03/19 02:34:48;;;;;;;60.38;41.70;;;3.50;43.90;;;;;;5034936;28;20444;-70
2022/03/19 02:37:14;;;;;;;62.23;43.07;;;3.40;43.80;;;;;;5034780;28;20180;-70
2022/03/19 02:39:39;;;;;;;70.80;42.73;;;3.40;43.70;;;;;;5034973;28;20174;-71
2022/03/19 02:42:07;;;;;;;62.70;43.20;;;3.30;44.00;;;;;;5034827;28;20213;-70
2022/03/19 02:44:33;;;;;;;63.78;40.60;;;3.30;44.10;;;;;;5034946;28;20203;-71
2022/03/19 02:47:01;;;;;;;58.35;41.40;;;3.30;43.90;;;;;;5034874;28;20179;-70
2022/03/19 02:49:26;;;;;;;64.97;37.78;;;3.30;43.90;;;;;;5034962;28;20217;-70
2022/03/19 02:51:53;;;;;;;72.77;46.23;;;3.20;44.20;;;;;;5034748;28;20180;-70
2022/03/19 02:54:21;;;;;;;59.83;39.83;;;3.30;44.10;;;;;;5034776;28;20204;-71
2022/03/19 02:56:47;;;;;;;61.63;41.40;;;3.30;44.10;;;;;;5033127;28;20194;-70
2022/03/19 02:59:21;;;;;;;62.70;40.07;;;3.40;43.20;;;;;;5034808;28;20172;-71
2022/03/19 03:01:55;;;;;;;71.35;42.55;;;3.40;42.70;;;;;;5034525;28;20410;-70
2022/03/19 03:04:21;;;;;;;58.03;39.25;;;3.40;41.80;;;;;;5034491;28;20207;-70
2022/03/19 03:06:49;;;;;;;57.13;39.60;;;3.40;42.20;;;;;;5034316;28;20563;-70
2022/03/19 03:09:18;;;;;;;57.00;42.53;;;3.30;42.60;;;;;;5034564;28;20556;-70
2022/03/19 03:11:44;;;;;;;58.88;37.17;;;3.30;43.00;;;;;;5034782;28;20182;-72
2022/03/19 03:14:10;;;;;;;67.77;42.30;;;3.40;42.30;;;;;;5031681;28;20706;-70
2022/03/19 03:16:37;;;;;;;67.32;39.22;;;3.40;41.90;;;;;;5034047;28;20907;-70
2022/03/19 03:19:05;;;;;;;49.90;35.58;;;3.30;42.20;;;;;;5034321;28;20175;-70
2022/03/19 03:21:35;;;;;;;67.90;40.13;;;3.40;41.90;;;;;;5034272;28;20179;-70
2022/03/19 03:24:02;;;;;;;62.03;43.40;;;3.20;42.40;;;;;;5034057;28;20290;-71
2022/03/19 03:26:28;;;;;;;61.97;42.50;;;3.20;42.20;;;;;;5032783;28;20733;-70
2022/03/19 03:28:53;;;;;;;64.13;39.90;;;3.20;43.00;;;;;;5034276;28;20179;-70
2022/03/19 03:31:19;;;;;;;61.60;39.80;;;3.20;42.20;;;;;;5034217;28;20186;-71
2022/03/19 03:33:45;;;;;;;61.67;41.27;;;3.20;41.70;;;;;;5032815;28;20195;-71
2022/03/19 03:36:10;;;;;;;49.70;34.17;;;3.10;41.60;;;;;;5033974;28;20428;-70
2022/03/19 03:38:36;;;;;;;63.13;42.57;;;3.10;41.80;;;;;;5033738;28;20180;-70
2022/03/19 03:41:02;;;;;;;54.53;39.28;;;3.10;42.20;;;;;;5033903;28;20196;-70
2022/03/19 03:43:28;;;;;;;59.72;39.42;;;3.10;41.60;;;;;;5032419;28;20215;-70
2022/03/19 03:45:55;;;;;;;61.77;42.20;;;3.20;41.60;;;;;;5033843;28;20521;-71
2022/03/19 03:48:20;;;;;;;58.78;39.00;;;3.20;41.60;;;;;;5033498;28;20172;-70
2022/03/19 03:50:49;;;;;;;50.40;35.73;;;3.10;41.60;;;;;;5033624;28;20183;-70
2022/03/19 03:53:15;;;;;;;56.88;38.13;;;3.10;41.60;;;;;;5033618;28;20188;-70
2022/03/19 03:55:40;;;;;;;55.10;38.23;;;3.00;41.50;;;;;;5033607;28;20302;-70
2022/03/19 03:58:08;;;;;;;53.73;38.67;;;3.10;41.40;;;;;;5033240;28;20183;-71
2022/03/19 04:00:34;;;;;;;56.85;40.33;;;3.10;41.20;;;;;;5033509;28;20172;-72
2022/03/19 04:03:00;;;;;;;52.50;35.70;;;3.00;40.70;;;;;;5033284;28;20204;-71
2022/03/19 04:05:25;;;;;;;59.80;38.70;;;3.00;40.70;;;;;;5033276;28;20796;-70
2022/03/19 04:07:51;;;;;;;54.47;40.97;;;3.10;40.60;;;;;;5033093;28;20417;-70
2022/03/19 04:10:17;;;;;;;57.90;38.63;;;3.10;40.40;;;;;;5033283;28;20182;-70
2022/03/19 04:12:43;;;;;;;61.97;39.72;;;3.20;39.90;;;;;;5033239;28;20421;-70
2022/03/19 04:15:10;;;;;;;60.13;42.10;;;3.20;39.40;;;;;;5033085;28;20212;-70
2022/03/19 04:17:36;;;;;;;61.00;43.10;;;3.20;39.30;;;;;;5032880;28;20180;-70
2022/03/19 04:20:04;;;;;;;59.90;37.73;;;3.20;39.30;;;;;;5033053;28;20257;-72
2022/03/19 04:22:37;;;;;;;55.35;38.15;;;3.20;38.90;;;;;;5032984;28;20801;-70
2022/03/19 04:25:04;;;;;;;51.05;34.72;;;3.20;38.50;;;;;;5032496;28;20199;-70
2022/03/19 04:27:30;;;;;;;53.58;35.20;;;3.10;38.60;;;;;;5032646;28;20591;-70
2022/03/19 04:29:56;;;;;;;46.47;36.17;;;3.20;38.30;;;;;;5032881;28;20180;-70
2022/03/19 04:32:22;;;;;;;50.17;35.53;;;3.10;38.10;;;;;;5033340;28;20171;-70
2022/03/19 04:34:48;;;;;;;47.28;32.90;;;3.20;37.50;;;;;;5032806;28;20201;-69
2022/03/19 04:37:13;;;;;;;60.13;37.70;;;3.10;37.40;;;;;;5033131;28;20188;-74
2022/03/19 04:39:39;;;;;;;58.27;36.47;;;3.10;37.50;;;;;;5033060;28;20208;-71
2022/03/19 04:42:04;;;;;;;53.53;36.97;;;3.20;37.30;;;;;;5032656;28;20235;-71
2022/03/19 04:44:30;;;;;;;57.13;35.80;;;3.10;36.60;;;;;;5032692;28;20286;-70
2022/03/19 04:46:56;;;;;;;51.27;34.47;;;3.10;37.00;;;;;;5032435;28;20171;-69
2022/03/19 04:49:21;;;;;;;50.20;36.03;;;3.00;37.50;;;;;;5032882;28;20745;-68
2022/03/19 04:51:48;;;;;;;47.30;34.70;;;3.00;37.40;;;;;;5032586;28;20176;-69
2022/03/19 04:54:16;;;;;;;49.47;35.42;;;3.00;37.30;;;;;;5032427;28;20194;-68
2022/03/19 04:56:41;;;;;;;53.58;34.88;;;3.00;37.00;;;;;;5032242;28;20237;-69
2022/03/19 04:59:11;;;;;;;50.80;35.20;;;3.00;36.90;;;;;;5032949;28;20577;-69
2022/03/19 05:01:37;;;;;;;46.75;33.90;;;2.90;37.10;;;;;;5033206;28;20258;-69
2022/03/19 05:04:04;;;;;;;52.45;31.70;;;2.90;36.40;;;;;;5032379;28;20234;-68
2022/03/19 05:06:29;;;;;;;49.37;34.37;;;2.90;36.80;;;;;;5030780;28;20262;-68
2022/03/19 05:11:41;;;;;;;47.85;36.40;;;2.90;36.40;;;;;;5030817;28;20208;-70
2022/03/19 05:14:07;;;;;;;53.85;38.83;;;2.90;36.40;;;;;;5032651;28;20704;-69
2022/03/19 05:16:33;;;;;;;42.67;30.47;;;2.90;36.40;;;;;;5031801;28;20194;-69
2022/03/19 05:18:58;;;;;;;43.73;34.77;;;2.90;36.40;;;;;;5032075;28;20912;-69
2022/03/19 05:21:24;;;;;;;41.80;34.43;;;2.80;36.30;;;;;;5032086;28;20649;-69
2022/03/19 05:23:49;;;;;;;48.73;34.50;;;2.90;36.40;;;;;;5031814;28;20215;-69
2022/03/19 05:26:15;;;;;;;46.57;35.07;;;2.90;36.40;;;;;;5031820;28;20289;-69
2022/03/19 05:28:41;;;;;;;43.73;33.77;;;2.90;36.10;;;;;;5031713;28;20171;-69
2022/03/19 05:31:08;;;;;;;44.83;33.47;;;2.90;36.10;;;;;;5031893;28;20181;-69
2022/03/19 05:36:18;;;;;;;49.60;32.22;;;2.70;36.20;;;;;;5031773;28;20206;-68
2022/03/19 05:38:44;;;;;;;42.23;30.87;;;2.80;36.30;;;;;;5031096;28;20172;-70
2022/03/19 05:41:10;;;;;;;47.90;35.03;;;2.80;36.20;;;;;;5031840;28;20219;-69
2022/03/19 05:43:35;;;;;;;40.10;31.53;;;2.90;36.40;;;;;;5030463;28;20758;-70
2022/03/19 05:46:01;;;;;;;41.17;31.23;;;2.80;35.90;;;;;;5031790;28;20414;-69
2022/03/19 05:48:26;;;;;;;45.53;33.40;;;2.80;35.80;;;;;;5031505;28;20175;-69
2022/03/19 05:50:53;;;;;;;50.70;31.60;;;2.80;36.30;;;;;;5031757;28;20545;-70
2022/03/19 05:53:18;;;;;;;53.38;32.88;;;2.80;35.20;;;;;;5031648;28;20179;-70
2022/03/19 05:55:44;;;;;;;46.80;32.23;;;2.90;34.70;;;;;;5031832;28;20586;-69
2022/03/19 05:58:09;;;;;;;41.33;29.60;;;2.90;34.60;;;;;;5031434;28;20672;-69
2022/03/19 06:00:35;;;;;;;46.23;34.60;;;2.90;34.40;;;;;;5030461;28;20175;-69
2022/03/19 06:03:00;;;;;;;45.20;34.43;;;3.00;34.20;;;;;;5031587;28;20203;-69
2022/03/19 06:05:26;;;;;;;42.77;30.40;;;3.00;34.00;;;;;;5032010;28;20195;-69
2022/03/19 06:07:52;;;;;;;43.83;31.37;;;3.00;33.50;;;;;;5031513;28;20698;-70
2022/03/19 06:10:18;;;;;;;41.88;30.70;;;3.10;33.60;;;;;;5030358;28;20171;-70
2022/03/19 06:12:46;;;;;;;50.97;33.50;;;3.30;32.50;;;;;;5030480;28;20179;-70
2022/03/19 06:15:11;;;;;;;37.25;29.75;;;3.40;31.70;;;;;;5031287;28;20277;-70
2022/03/19 06:17:37;;;;;;;40.10;29.13;;;3.70;30.20;;;;;;5031328;28;20181;-69
2022/03/19 06:20:03;;;;;;;41.67;29.67;;;3.80;29.30;;;;;;5031940;28;20244;-70
2022/03/19 06:22:29;;;;;;;37.88;27.20;;;4.00;28.70;;;;;;5030054;28;20212;-70
2022/03/19 06:24:54;;;;;;;39.10;29.40;;;4.30;27.90;;;;;;5031404;28;20223;-70
2022/03/19 06:27:20;;;;;;;30.33;25.23;;;4.40;27.40;;;;;;5029830;28;20184;-71
2022/03/19 06:29:45;;;;;;;43.70;30.80;;;4.50;26.50;;;;;;5031633;28;20264;-70
2022/03/19 06:32:11;;;;;;;51.23;28.10;;;4.50;26.70;;;;;;5031627;28;20188;-70
2022/03/19 06:34:36;;;;;;;37.67;30.77;;;4.60;26.50;;;;;;5031476;28;20440;-67
2022/03/19 06:37:20;;;;;;;39.97;28.00;;;4.90;25.60;;;;;;5031372;28;20343;-68
2022/03/19 06:39:53;;;;;;;36.97;28.07;;;5.00;25.20;;;;;;5031189;28;20605;-68
2022/03/19 06:42:19;;;;;;;32.80;29.20;;;5.50;24.60;;;;;;5031324;28;20829;-68
2022/03/19 06:44:44;;;;;;;36.10;29.77;;;6.00;22.80;;;;;;5029921;28;20433;-68
2022/03/19 06:47:10;;;;;;;34.27;30.60;;;6.30;22.30;;;;;;5031062;28;20421;-68
2022/03/19 06:49:36;;;;;;;31.40;28.30;;;6.50;21.10;;;;;;5033781;28;20250;-69
2022/03/19 06:52:01;;;;;;;38.00;29.20;;;6.60;20.70;;;;;;5034739;28;20175;-69
2022/03/19 06:54:27;;;;;;;29.97;26.80;;;6.70;20.70;;;;;;5034650;28;20474;-69
2022/03/19 06:56:52;;;;;;;35.97;32.13;;;7.00;19.90;;;;;;5034652;28;20176;-68
2022/03/19 06:59:18;;;;;;;31.33;27.20;;;7.10;18.60;;;;;;5034644;28;20183;-69
2022/03/19 07:01:44;;;;;;;30.87;27.87;;;6.90;19.80;;;;;;5034570;28;20175;-68
2022/03/19 07:04:09;;;;;;;32.50;29.07;;;7.10;19.30;;;;;;5033214;28;20215;-69
2022/03/19 07:06:35;;;;;;;29.67;26.60;;;7.30;20.00;;;;;;5034087;28;20180;-69
2022/03/19 07:09:00;;;;;;;31.60;27.17;;;7.40;20.20;;;;;;5034510;28;20266;-69
2022/03/19 07:11:26;;;;;;;30.77;27.77;;;7.60;19.30;;;;;;5034458;28;20167;-69
2022/03/19 07:13:52;;;;;;;29.53;26.73;;;7.10;17.30;;;;;;5034227;28;20218;-69
2022/03/19 07:16:17;;;;;;;34.07;27.40;;;6.70;19.00;;;;;;5034217;28;20250;-68
2022/03/19 07:18:43;;;;;;;30.20;27.10;;;6.40;18.80;;;;;;5033937;28;20245;-69
2022/03/19 07:21:10;;;;;;;33.27;29.90;;;6.40;19.10;;;;;;5034256;28;20179;-69
2022/03/19 07:23:36;;;;;;;30.87;27.63;;;6.20;19.80;;;;;;5034167;28;20348;-69
2022/03/19 07:26:01;;;;;;;32.80;28.47;;;6.00;20.80;;;;;;5034156;28;20492;-68
2022/03/19 07:28:27;;;;;;;30.80;27.70;;;5.70;22.00;;;;;;5033851;28;20173;-68
2022/03/19 07:30:53;;;;;;;33.83;28.03;;;5.70;22.20;;;;;;5034055;28;20181;-67
2022/03/19 07:33:19;;;;;;;36.50;28.80;;;5.50;22.60;;;;;;5034203;28;20910;-69
2022/03/19 07:35:44;;;;;;;39.50;29.57;;;5.40;24.00;;;;;;5034103;28;20174;-69
2022/03/19 07:38:11;;;;;;;39.23;29.57;;;5.50;24.10;;;;;;5034283;28;20202;-70
2022/03/19 07:43:23;;;;;;;35.90;29.27;;;5.70;22.80;;;;;;5033870;28;20564;-69
2022/03/19 07:45:49;;;;;;;34.60;30.90;;;5.80;22.60;;;;;;5033807;28;20202;-68
2022/03/19 07:48:15;;;;;;;40.17;30.38;;;5.70;22.00;;;;;;5032109;28;20499;-70
2022/03/19 07:50:41;;;;;;;36.03;28.80;;;5.50;22.60;;;;;;5032327;28;20218;-69
2022/03/19 07:53:07;;;;;;;34.67;29.50;;;5.60;22.20;;;;;;5033816;28;20613;-68
2022/03/19 07:55:34;;;;;;;33.73;29.77;;;5.80;22.70;;;;;;5032500;28;20450;-67
2022/03/19 07:58:00;;;;;;;39.40;28.53;;;5.80;22.10;;;;;;5033244;28;20421;-70
2022/03/19 08:00:25;;;;;;;46.17;33.40;;;5.70;22.10;;;;;;5032675;28;20471;-70
2022/03/19 08:02:51;;;;;;;39.63;29.70;;;5.80;22.20;;;;;;5033235;28;20524;-68
2022/03/19 08:05:17;;;;;;;40.53;28.23;;;5.90;22.20;;;;;;5033305;28;20194;-69
2022/03/19 08:07:42;;;;;;;32.23;28.73;;;6.10;22.20;;;;;;5033129;28;20187;-70
2022/03/19 08:10:10;;;;;;;35.37;31.53;;;6.10;22.10;;;;;;5033292;28;20406;-68
2022/03/19 08:12:36;;;;;;;34.33;27.87;;;6.20;21.30;;;;;;5030326;28;20193;-69
2022/03/19 08:15:08;;;;;;;31.60;28.27;;;6.30;21.00;;;;;;5016122;28;20480;-69
2022/03/19 08:17:38;;;;;;;34.30;30.60;;;6.40;21.00;;;;;;5012402;28;20452;-68
2022/03/19 08:20:08;;;;;;;35.17;28.07;;;6.50;21.10;;;;;;5013320;28;20419;-69
2022/03/19 08:22:35;;;;;;;36.60;29.43;;;6.70;20.70;;;;;;5018673;28;20490;-68
2022/03/19 08:25:01;;;;;;;37.37;31.13;;;6.80;20.20;;;;;;5032957;28;20430;-68
2022/03/19 08:27:27;;;;;;;32.20;28.77;;;6.80;19.70;;;;;;5031406;28;20421;-68
2022/03/19 08:29:52;;;;;;;34.00;29.23;;;6.80;19.50;;;;;;5031782;28;20781;-68
2022/03/19 08:32:20;;;;;;;29.60;26.50;;;7.00;19.60;;;;;;5032772;28;20833;-69
2022/03/19 08:34:46;;;;;;;35.13;31.43;;;7.00;19.40;;;;;;5020541;28;20684;-69
2022/03/19 08:37:11;;;;;;;37.00;30.83;;;7.00;19.00;;;;;;5032878;28;20410;-70
2022/03/19 08:42:22;;;;;;;39.33;28.13;;;7.00;19.20;;;;;;5032891;28;20214;-70
2022/03/19 08:44:48;;;;;;;28.90;25.80;;;7.20;18.40;;;;;;5031835;28;20473;-70
2022/03/19 08:47:13;;;;;;;30.93;27.50;;;7.20;18.30;;;;;;5032223;28;20495;-69
2022/03/19 08:49:39;;;;;;;31.63;28.43;;;7.30;18.70;;;;;;5031094;28;20418;-70
2022/03/19 08:52:05;;;;;;;33.03;29.93;;;7.50;17.50;;;;;;5027752;28;20188;-71
2022/03/19 08:54:30;;;;;;;31.73;28.43;;;7.50;16.80;;;;;;5029898;28;20191;-68
2022/03/19 08:56:56;;;;;;;30.67;27.03;;;7.60;16.80;;;;;;5026725;28;20199;-69
2022/03/19 08:59:22;;;;;;;30.37;27.50;;;7.80;17.20;;;;;;5028845;28;20228;-70
2022/03/19 09:01:50;;;;;;;27.93;25.33;;;7.80;15.90;;;;;;5028102;28;20268;-70
2022/03/19 09:04:16;;;;;;;28.07;25.20;;;7.90;15.50;;;;;;5026626;28;20306;-69
2022/03/19 09:06:42;;;;;;;33.47;30.23;;;8.00;14.70;;;;;;5026144;28;20430;-71
2022/03/19 09:09:08;;;;;;;31.50;28.47;;;7.80;15.20;;;;;;5027469;28;20418;-70
2022/03/19 09:11:36;;;;;;;33.67;30.33;;;8.10;15.10;;;;;;5027822;28;20183;-70
2022/03/19 09:14:03;;;;;;;33.00;29.47;;;8.10;14.40;;;;;;5029120;28;20975;-70
2022/03/19 09:16:29;;;;;;;33.37;28.70;;;8.10;14.60;;;;;;5031812;28;20414;-68
2022/03/19 09:18:56;;;;;;;30.57;27.23;;;8.20;14.60;;;;;;5030592;28;20427;-69
2022/03/19 09:21:22;;;;;;;29.70;26.83;;;8.30;14.80;;;;;;5030942;28;20431;-71
2022/03/19 09:23:50;;;;;;;30.97;28.27;;;8.50;14.70;;;;;;5031944;28;20535;-72
2022/03/19 09:26:17;;;;;;;32.70;28.40;;;8.50;13.80;;;;;;5032105;28;20407;-71
2022/03/19 09:28:43;;;;;;;28.40;26.00;;;8.70;14.80;;;;;;5030666;28;20836;-69
2022/03/19 09:31:09;;;;;;;29.73;26.77;;;8.90;13.20;;;;;;5031666;28;20502;-71
2022/03/19 09:33:34;;;;;;;28.87;25.30;;;8.80;11.60;;;;;;5030559;28;20472;-71
2022/03/19 09:36:01;;;;;;;30.40;27.57;;;8.60;12.10;;;;;;5032080;28;20269;-72
2022/03/19 09:38:30;;;;;;;28.80;25.93;;;8.70;12.90;;;;;;5030738;28;20181;-69
2022/03/19 09:40:56;;;;;;;28.70;25.90;;;8.90;12.90;;;;;;5031873;28;20445;-72
2022/03/19 09:43:23;;;;;;;32.47;29.43;;;8.90;11.10;;;;;;5031714;28;20514;-72
2022/03/19 09:45:49;;;;;;;28.10;25.00;;;9.00;9.80;;;;;;5032052;28;20438;-69
2022/03/19 09:48:15;;;;;;;28.03;25.57;;;8.90;9.70;;;;;;5030955;28;20433;-70
2022/03/19 09:50:41;;;;;;;28.30;25.87;;;9.00;9.80;;;;;;5030305;28;20946;-71
2022/03/19 09:53:08;;;;;;;31.17;28.17;;;9.20;9.10;;;;;;5031626;28;20182;-72
2022/03/19 09:55:34;;;;;;;31.03;27.67;;;9.30;9.30;;;;;;5013557;28;20597;-71
2022/03/19 09:58:01;;;;;;;29.33;26.63;;;9.30;9.30;;;;;;5036021;28;20497;-69
2022/03/19 10:00:27;;;;;;;26.87;24.27;;;9.40;10.00;;;;;;5030619;28;20187;-71
2022/03/19 10:02:57;;;;;;;27.37;25.27;;;9.50;9.40;;;;;;5030408;28;20513;-70
2022/03/19 10:10:55;;;;;;;31.50;28.40;;;9.30;7.50;;;;;;5032045;28;20457;-69
2022/03/19 10:13:22;;;;;;;30.20;27.23;;;9.30;9.50;;;;;;5018578;28;20996;-69
2022/03/19 10:15:48;;;;;;;28.83;26.17;;;9.50;7.70;;;;;;5043955;28;20494;-72
2022/03/19 10:18:13;;;;;;;27.43;24.87;;;9.50;7.90;;;;;;5031396;28;20407;-72
2022/03/19 10:20:39;;;;;;;29.20;26.37;;;9.40;6.40;;;;;;5031911;28;20229;-71
2022/03/19 10:23:05;;;;;;;28.20;25.93;;;9.40;6.60;;;;;;5031872;28;20214;-72
2022/03/19 10:25:31;;;;;;;30.90;25.80;;;9.40;6.30;;;;;;5035654;28;20192;-72
2022/03/19 10:28:02;;;;;;;26.13;23.63;;;9.40;6.10;;;;;;5035057;28;20183;-70
2022/03/19 10:30:38;;;;;;;29.33;26.50;;;9.50;7.10;;;;;;5035495;28;20427;-69
2022/03/19 10:33:06;;;;;;;29.40;26.80;;;9.70;7.80;;;;;;5035079;28;20808;-69
2022/03/19 10:35:33;;;;;;;26.43;24.03;;;9.90;7.40;;;;;;5035176;28;20416;-72
2022/03/19 10:38:00;;;;;;;30.50;27.77;;;9.90;6.60;;;;;;5034816;28;20549;-70
2022/03/19 10:40:43;;;;;;;29.67;26.87;;;10.00;5.40;;;;;;5035126;28;20432;-71
2022/03/19 10:43:11;;;;;;;30.33;27.47;;;9.90;5.90;;;;;;5034831;28;20465;-70
2022/03/19 10:45:48;;;;;;;26.43;24.10;;;9.60;5.70;;;;;;5034966;28;20444;-69
2022/03/19 10:48:21;;;;;;;33.00;29.90;;;9.70;6.70;;;;;;5033389;28;20420;-70
2022/03/19 10:50:48;;;;;;;30.50;27.53;;;9.70;6.40;;;;;;5015247;28;20930;-70
2022/03/19 10:53:14;;;;;;;30.17;27.23;;;9.90;6.40;;;;;;5014912;28;20916;-70
2022/03/19 10:55:40;;;;;;;29.00;26.13;;;10.10;6.30;;;;;;5014919;28;20407;-70
2022/03/19 10:58:06;;;;;;;32.03;29.37;;;10.10;6.40;;;;;;5014845;28;20414;-68
2022/03/19 11:00:33;;;;;;;30.77;28.07;;;10.00;6.80;;;;;;5015206;28;20189;-70
2022/03/19 11:03:01;;;;;;;29.87;27.20;;;10.10;7.70;;;;;;5014976;28;20208;-70
2022/03/19 11:05:32;;;;;;;30.30;27.33;;;10.10;8.00;;;;;;5016156;28;20444;-69
2022/03/19 11:08:00;;;;;;;30.83;28.03;;;10.00;7.90;;;;;;5024506;28;20433;-69
2022/03/19 11:10:28;;;;;;;32.67;29.30;;;9.70;8.40;;;;;;5035072;28;20499;-70
2022/03/19 11:12:56;;;;;;;31.57;28.50;;;9.90;9.00;;;;;;5035783;28;20435;-71
2022/03/19 11:15:23;;;;;;;30.07;27.53;;;9.80;7.70;;;;;;5034776;28;20445;-66
2022/03/19 11:17:50;;;;;;;37.20;28.60;;;9.90;7.70;;;;;;5034172;28;20420;-69
2022/03/19 11:20:16;;;;;;;30.57;27.10;;;9.90;8.10;;;;;;5035297;28;20428;-70
2022/03/19 11:22:50;;;;;;;33.97;30.63;;;10.00;7.00;;;;;;5035599;28;20555;-67
2022/03/19 11:25:27;;;;;;;30.53;27.33;;;9.90;6.70;;;;;;5035232;28;20432;-68
2022/03/19 11:27:59;;;;;;;32.33;26.83;;;9.90;7.30;;;;;;5016084;28;20431;-67
2022/03/19 11:30:29;;;;;;;31.90;28.63;;;9.90;7.00;;;;;;5014966;28;20417;-67
2022/03/19 11:33:04;;;;;;;33.77;30.67;;;10.10;5.30;;;;;;5018866;28;20907;-70
2022/03/19 11:35:31;;;;;;;31.60;28.90;;;10.10;5.80;;;;;;5013058;28;20415;-67
2022/03/19 11:38:02;;;;;;;29.77;27.00;;;10.10;5.60;;;;;;5014138;28;20484;-68
2022/03/19 11:40:29;;;;;;;31.03;28.13;;;10.30;5.40;;;;;;5014264;28;20421;-68
2022/03/19 11:42:57;;;;;;;28.07;25.77;;;10.40;5.50;;;;;;5027930;28;20506;-67
2022/03/19 11:45:23;;;;;;;28.73;26.27;;;10.40;5.50;;;;;;5019161;28;20443;-67
2022/03/19 11:47:49;;;;;;;29.13;26.30;;;10.30;5.00;;;;;;5015393;28;20786;-68
2022/03/19 11:50:26;;;;;;;30.47;27.57;;;10.40;5.50;;;;;;5033920;28;20414;-67
2022/03/19 11:52:54;;;;;;;27.93;25.43;;;10.40;5.50;;;;;;5034889;28;20182;-67
2022/03/19 11:55:23;;;;;;;30.23;27.73;;;10.40;5.50;;;;;;5035307;28;20947;-67
2022/03/19 11:58:00;;;;;;;33.17;30.03;;;10.30;5.40;;;;;;5033741;28;20540;-69
2022/03/19 12:00:28;;;;;;;33.90;30.43;;;10.40;6.00;;;;;;5033812;28;20417;-69
2022/03/19 12:03:05;;;;;;;35.53;32.50;;;10.40;6.30;;;;;;5033811;28;20602;-68
2022/03/19 12:05:32;;;;;;;34.77;31.37;;;10.40;6.10;;;;;;5033790;28;20957;-67
2022/03/19 12:08:12;;;;;;;32.73;29.83;;;10.40;6.60;;;;;;5034134;28;20622;-70
2022/03/19 12:10:58;;;;;;;31.20;28.30;;;10.50;7.20;;;;;;5034328;28;20490;-69
2022/03/19 12:13:26;;;;;;;32.03;28.80;;;10.60;6.50;;;;;;5034155;28;20449;-67
2022/03/19 12:15:53;;;;;;;33.37;30.10;;;10.60;6.80;;;;;;5028732;28;20442;-67
2022/03/19 12:18:38;;;;;;;30.90;28.00;;;10.70;6.30;;;;;;5033507;28;20429;-67
2022/03/19 12:21:11;;;;;;;26.53;24.17;;;10.80;5.50;;;;;;5033966;28;20406;-69
2022/03/19 12:23:41;;;;;;;32.63;29.57;;;10.80;5.50;;;;;;5033851;28;20465;-67
2022/03/19 12:26:08;;;;;;;28.60;26.00;;;10.80;5.50;;;;;;5033240;28;20429;-69
2022/03/19 12:28:35;;;;;;;23.10;21.33;;;10.80;5.10;;;;;;5033352;28;20407;-67
2022/03/19 12:31:15;;;;;;;24.97;22.50;;;11.00;4.20;;;;;;5033491;28;20923;-69
2022/03/19 12:33:43;;;;;;;24.70;22.57;;;10.80;3.70;;;;;;5033391;28;20433;-69
2022/03/19 12:36:17;;;;;;;24.90;22.70;;;10.80;4.40;;;;;;5033213;28;20429;-68
2022/03/19 12:38:44;;;;;;;26.50;24.60;;;10.80;4.30;;;;;;5032443;28;20510;-70
2022/03/19 12:41:23;;;;;;;24.57;22.60;;;11.00;4.40;;;;;;5032817;28;20417;-67
2022/03/19 12:43:50;;;;;;;26.30;23.63;;;11.00;4.20;;;;;;5033228;28;20461;-68
2022/03/19 12:46:27;;;;;;;25.93;23.40;;;11.00;3.80;;;;;;5032513;28;20426;-67
2022/03/19 12:49:02;;;;;;;25.33;22.73;;;10.90;4.60;;;;;;5032418;28;20414;-67
2022/03/19 12:51:28;;;;;;;25.50;23.30;;;11.10;4.00;;;;;;5032404;28;20426;-67
2022/03/19 12:53:54;;;;;;;25.17;23.10;;;11.00;3.60;;;;;;5032478;28;20483;-67
2022/03/19 12:56:28;;;;;;;25.50;23.10;;;10.80;4.30;;;;;;5031530;28;20481;-69